createdAt,value
2023-02-27T00:02:19.679Z,2.40
2023-02-27T00:04:47.483Z,2.30
2023-02-27T00:07:15.372Z,2.27
2023-02-27T00:09:43.127Z,1.93
2023-02-27T00:12:11.926Z,2.20
2023-02-27T00:14:41.040Z,2.43
2023-02-27T00:17:08.904Z,2.20
2023-02-27T00:19:36.626Z,2.30
2023-02-27T00:22:04.371Z,2.20
2023-02-27T00:24:32.059Z,2.30
2023-02-27T00:26:59.827Z,2.13
2023-02-27T00:29:27.582Z,2.30
2023-02-27T00:31:56.859Z,2.10
2023-02-27T00:34:25.377Z,2.13
2023-02-27T00:36:54.036Z,2.20
2023-02-27T00:39:21.821Z,2.57
2023-02-27T00:41:49.604Z,2.27
2023-02-27T00:44:17.409Z,2.40
2023-02-27T00:46:46.933Z,2.47
2023-02-27T00:49:16.267Z,2.70
2023-02-27T00:51:44.101Z,2.33
2023-02-27T00:54:11.847Z,2.20
2023-02-27T00:56:41.170Z,2.47
2023-02-27T00:59:09.110Z,2.30
2023-02-27T01:01:36.860Z,2.40
2023-02-27T01:04:04.725Z,2.10
2023-02-27T01:06:33.894Z,2.20
2023-02-27T01:09:01.685Z,2.10
2023-02-27T01:11:29.648Z,2.30
2023-02-27T01:13:57.379Z,2.40
2023-02-27T01:16:25.484Z,2.50
2023-02-27T01:18:53.341Z,2.40
2023-02-27T01:21:21.522Z,2.10
2023-02-27T01:23:51.136Z,2.30
2023-02-27T01:26:20.239Z,2.37
2023-02-27T01:28:47.963Z,2.40
2023-02-27T01:31:16.313Z,2.50
2023-02-27T01:33:44.079Z,2.17
2023-02-27T01:36:12.143Z,2.20
2023-02-27T01:38:39.879Z,2.50
2023-02-27T01:41:09.011Z,2.30
2023-02-27T01:43:58.461Z,2.53
2023-02-27T01:46:27.174Z,2.20
2023-02-27T01:48:59.659Z,2.67
2023-02-27T01:51:30.522Z,2.20
2023-02-27T01:53:59.411Z,2.50
2023-02-27T01:56:31.131Z,2.60
2023-02-27T01:59:03.177Z,2.57
2023-02-27T02:01:32.913Z,2.87
2023-02-27T02:04:07.723Z,3.00
2023-02-27T02:06:37.428Z,2.90
2023-02-27T02:09:08.398Z,2.83
2023-02-27T02:11:38.387Z,2.50
2023-02-27T02:14:10.642Z,2.90
2023-02-27T02:16:55.020Z,3.10
2023-02-27T02:20:07.410Z,2.83
2023-02-27T02:23:08.495Z,2.53
2023-02-27T02:26:09.506Z,3.30
2023-02-27T02:29:09.013Z,3.20
2023-02-27T02:32:12.642Z,3.23
2023-02-27T02:35:28.331Z,3.07
2023-02-27T02:40:56.793Z,3.33
2023-02-27T02:43:30.745Z,3.13
2023-02-27T02:46:05.586Z,2.80
2023-02-27T02:48:45.159Z,3.00
2023-02-27T02:51:19.699Z,2.90
2023-02-27T02:53:56.803Z,3.20
2023-02-27T02:56:30.609Z,3.50
2023-02-27T02:59:04.618Z,3.43
2023-02-27T03:01:37.305Z,3.90
2023-02-27T03:04:10.436Z,3.17
2023-02-27T03:06:44.965Z,3.43
2023-02-27T03:09:22.187Z,3.30
2023-02-27T03:11:54.905Z,3.33
2023-02-27T03:14:32.420Z,3.40
2023-02-27T03:17:07.639Z,3.10
2023-02-27T03:19:41.302Z,3.50
2023-02-27T03:22:12.193Z,3.53
2023-02-27T03:24:43.258Z,3.80
2023-02-27T03:27:13.343Z,3.37
2023-02-27T03:29:47.614Z,3.50
2023-02-27T03:32:20.132Z,3.67
2023-02-27T03:34:49.096Z,3.30
2023-02-27T03:37:26.678Z,3.53
2023-02-27T03:40:01.693Z,3.53
2023-02-27T03:42:38.431Z,3.63
2023-02-27T03:45:23.022Z,3.60
2023-02-27T03:47:51.177Z,3.63
2023-02-27T03:50:19.987Z,3.50
2023-02-27T03:52:47.918Z,3.97
2023-02-27T03:55:18.619Z,3.60
2023-02-27T03:57:50.094Z,3.67
2023-02-27T04:00:20.942Z,3.90
2023-02-27T04:02:51.640Z,3.60
2023-02-27T04:05:24.102Z,3.73
2023-02-27T04:08:12.193Z,3.90
2023-02-27T04:10:56.227Z,3.60
2023-02-27T04:13:44.835Z,3.50
2023-02-27T04:16:36.746Z,4.00
2023-02-27T04:19:19.796Z,3.90
2023-02-27T04:21:57.391Z,3.73
2023-02-27T04:24:36.108Z,4.40
2023-02-27T04:27:15.318Z,3.90
2023-02-27T04:29:54.928Z,4.17
2023-02-27T04:32:32.201Z,4.00
2023-02-27T04:35:03.800Z,4.33
2023-02-27T04:37:36.103Z,4.20
2023-02-27T04:40:10.117Z,3.77
2023-02-27T04:42:41.631Z,3.93
2023-02-27T04:45:15.326Z,3.70
2023-02-27T04:47:49.311Z,3.70
2023-02-27T04:50:22.939Z,3.80
2023-02-27T04:52:55.714Z,3.93
2023-02-27T04:55:27.959Z,3.60
2023-02-27T04:58:00.469Z,3.80
2023-02-27T05:00:32.320Z,3.73
2023-02-27T05:03:05.673Z,3.80
2023-02-27T05:05:37.189Z,3.73
2023-02-27T05:08:10.314Z,3.23
2023-02-27T05:10:44.314Z,3.80
2023-02-27T05:13:16.021Z,3.50
2023-02-27T05:15:48.188Z,3.53
2023-02-27T05:18:21.665Z,3.73
2023-02-27T05:20:54.776Z,3.93
2023-02-27T05:23:31.377Z,3.83
2023-02-27T05:26:03.715Z,3.73
2023-02-27T05:28:37.278Z,3.90
2023-02-27T05:31:15.798Z,3.80
2023-02-27T05:33:50.183Z,3.90
2023-02-27T05:36:23.779Z,3.90
2023-02-27T05:38:55.892Z,4.00
2023-02-27T05:41:29.523Z,4.27
2023-02-27T05:44:02.739Z,3.83
2023-02-27T05:46:37.018Z,5.13
2023-02-27T05:49:10.879Z,6.23
2023-02-27T05:51:41.466Z,5.00
2023-02-27T05:54:19.108Z,4.23
2023-02-27T05:56:50.886Z,4.07
2023-02-27T05:59:28.161Z,3.93
2023-02-27T06:01:57.646Z,3.70
2023-02-27T06:04:25.539Z,4.03
2023-02-27T06:06:53.680Z,3.73
2023-02-27T06:09:22.088Z,4.37
2023-02-27T06:11:49.835Z,4.27
2023-02-27T06:14:17.538Z,4.23
2023-02-27T06:16:45.415Z,4.30
2023-02-27T06:19:14.600Z,4.30
2023-02-27T06:21:42.348Z,4.00
2023-02-27T06:24:10.075Z,4.23
2023-02-27T06:26:37.850Z,4.73
2023-02-27T06:29:05.618Z,4.07
2023-02-27T06:31:33.322Z,4.73
2023-02-27T06:34:01.020Z,4.70
2023-02-27T06:36:30.459Z,5.00
2023-02-27T06:38:58.782Z,5.00
2023-02-27T06:41:26.734Z,4.83
2023-02-27T06:43:55.645Z,4.73
2023-02-27T06:46:23.468Z,4.53
2023-02-27T06:48:51.208Z,4.77
2023-02-27T06:51:18.928Z,4.77
2023-02-27T06:53:48.098Z,4.30
2023-02-27T06:56:15.886Z,4.87
2023-02-27T06:58:43.654Z,4.20
2023-02-27T07:01:12.181Z,4.40
2023-02-27T07:03:40.040Z,4.67
2023-02-27T07:06:08.005Z,4.10
2023-02-27T07:08:36.467Z,4.23
2023-02-27T07:11:05.781Z,4.30
2023-02-27T07:13:33.510Z,4.60
2023-02-27T07:16:01.294Z,4.60
2023-02-27T07:18:29.390Z,4.30
2023-02-27T07:20:57.156Z,3.80
2023-02-27T07:23:25.155Z,4.10
2023-02-27T07:25:52.954Z,4.10
2023-02-27T07:28:22.127Z,3.93
2023-02-27T07:30:49.962Z,4.10
2023-02-27T07:33:17.814Z,3.83
2023-02-27T07:35:46.188Z,3.87
2023-02-27T07:38:13.958Z,4.00
2023-02-27T07:40:41.901Z,4.07
2023-02-27T07:43:09.626Z,4.00
2023-02-27T07:45:38.712Z,3.83
2023-02-27T07:48:06.866Z,4.03
2023-02-27T07:50:34.585Z,4.13
2023-02-27T07:53:02.324Z,3.70
2023-02-27T07:55:30.124Z,3.83
2023-02-27T07:57:57.842Z,4.23
2023-02-27T08:00:25.742Z,3.90
2023-02-27T08:02:54.878Z,4.03
2023-02-27T08:05:22.641Z,4.27
2023-02-27T08:07:50.333Z,3.90
2023-02-27T08:10:18.714Z,4.10
2023-02-27T08:12:46.565Z,3.90
2023-02-27T08:15:14.625Z,3.87
2023-02-27T08:17:42.345Z,3.57
2023-02-27T08:20:13.985Z,3.63
2023-02-27T08:22:42.419Z,3.80
2023-02-27T08:25:12.124Z,4.43
2023-02-27T08:27:40.026Z,4.27
2023-02-27T08:30:10.193Z,4.10
2023-02-27T08:32:38.861Z,3.80
2023-02-27T08:35:07.471Z,4.00
2023-02-27T08:37:36.797Z,3.87
2023-02-27T08:40:06.755Z,3.53
2023-02-27T08:42:34.497Z,3.70
2023-02-27T08:45:02.693Z,3.90
2023-02-27T08:47:30.628Z,4.00
2023-02-27T08:49:58.381Z,3.63
2023-02-27T08:52:26.163Z,3.30
2023-02-27T08:54:55.251Z,3.60
2023-02-27T08:57:23.031Z,3.80
2023-02-27T08:59:50.904Z,3.40
2023-02-27T09:02:18.774Z,3.30
2023-02-27T09:04:46.690Z,3.37
2023-02-27T09:07:14.440Z,3.40
2023-02-27T09:09:42.198Z,3.50
2023-02-27T09:12:11.233Z,3.30
2023-02-27T09:14:40.014Z,2.90
2023-02-27T09:17:08.263Z,3.47
2023-02-27T09:19:36.871Z,3.30
2023-02-27T09:22:04.646Z,3.40
2023-02-27T09:24:32.353Z,3.03
2023-02-27T09:27:00.066Z,3.47
2023-02-27T09:29:29.119Z,3.37
2023-02-27T09:31:56.973Z,2.90
2023-02-27T09:34:24.786Z,3.10
2023-02-27T09:36:52.518Z,3.37
2023-02-27T09:39:20.307Z,3.03
2023-02-27T09:41:55.322Z,3.23
2023-02-27T09:44:45.343Z,3.00
2023-02-27T09:47:17.360Z,3.30
2023-02-27T09:50:01.644Z,2.97
2023-02-27T09:52:31.061Z,3.43
2023-02-27T09:54:59.117Z,3.00
2023-02-27T09:57:40.082Z,2.90
2023-02-27T10:00:20.433Z,2.90
2023-02-27T10:02:57.278Z,2.40
2023-02-27T10:05:36.658Z,2.83
2023-02-27T10:08:13.147Z,3.30
2023-02-27T10:10:50.329Z,2.90
2023-02-27T10:13:37.704Z,2.90
2023-02-27T10:16:11.474Z,3.07
2023-02-27T10:18:49.401Z,2.97
2023-02-27T10:21:21.036Z,2.73
2023-02-27T10:23:55.821Z,2.70
2023-02-27T10:26:27.468Z,2.80
2023-02-27T10:28:55.262Z,2.57
2023-02-27T10:31:27.595Z,2.80
2023-02-27T10:33:58.173Z,2.77
2023-02-27T10:36:34.100Z,2.70
2023-02-27T10:39:07.057Z,2.90
2023-02-27T10:41:37.118Z,2.60
2023-02-27T10:44:05.971Z,2.53
2023-02-27T10:46:38.391Z,2.50
2023-02-27T10:49:16.935Z,2.90
2023-02-27T10:51:47.002Z,2.40
2023-02-27T10:54:20.866Z,2.80
2023-02-27T10:56:52.166Z,3.07
2023-02-27T10:59:23.608Z,2.50
2023-02-27T11:01:54.365Z,2.80
2023-02-27T11:04:28.045Z,2.90
2023-02-27T11:06:56.848Z,2.60
2023-02-27T11:09:26.927Z,2.67
2023-02-27T11:11:54.998Z,3.00
2023-02-27T11:14:29.253Z,2.60
2023-02-27T11:16:59.602Z,2.60
2023-02-27T11:19:33.328Z,5.97
2023-02-27T11:22:06.749Z,2.93
2023-02-27T11:24:35.510Z,2.77
2023-02-27T11:27:06.342Z,2.60
2023-02-27T11:29:35.520Z,2.57
2023-02-27T11:32:12.923Z,2.57
2023-02-27T11:34:47.399Z,2.43
2023-02-27T11:37:26.659Z,2.67
2023-02-27T11:40:04.674Z,2.50
2023-02-27T11:42:35.475Z,3.07
2023-02-27T11:45:06.204Z,2.50
2023-02-27T11:47:37.818Z,2.63
2023-02-27T11:50:29.682Z,2.20
2023-02-27T11:53:11.525Z,2.67
2023-02-27T11:55:39.514Z,3.23
2023-02-27T11:58:16.162Z,2.40
2023-02-27T12:00:49.501Z,2.10
2023-02-27T12:03:24.832Z,2.70
2023-02-27T12:05:55.386Z,2.30
2023-02-27T12:08:31.400Z,2.60
2023-02-27T12:11:13.084Z,2.90
2023-02-27T12:13:48.003Z,2.63
2023-02-27T12:16:22.312Z,3.53
2023-02-27T12:18:56.493Z,2.40
2023-02-27T12:21:28.328Z,2.53
2023-02-27T12:24:02.853Z,2.87
2023-02-27T12:26:33.916Z,2.43
2023-02-27T12:29:06.055Z,2.30
2023-02-27T12:31:49.116Z,2.73
2023-02-27T12:34:25.979Z,2.37
2023-02-27T12:36:54.627Z,2.53
2023-02-27T12:39:24.556Z,2.40
2023-02-27T12:42:18.461Z,2.60
2023-02-27T12:44:59.705Z,2.20
2023-02-27T12:47:37.231Z,2.37
2023-02-27T12:50:12.171Z,2.20
2023-02-27T12:52:52.587Z,2.20
2023-02-27T12:55:25.114Z,2.00
2023-02-27T12:58:30.442Z,2.23
2023-02-27T13:01:03.283Z,1.93
2023-02-27T13:03:40.856Z,2.10
2023-02-27T13:06:17.453Z,2.07
2023-02-27T13:09:18.263Z,2.50
2023-02-27T13:12:10.091Z,2.03
2023-02-27T13:14:47.959Z,2.10
2023-02-27T13:17:24.683Z,2.30
2023-02-27T13:19:56.088Z,2.00
2023-02-27T13:22:33.601Z,2.10
2023-02-27T13:25:05.787Z,2.10
2023-02-27T13:27:37.302Z,2.53
2023-02-27T13:30:14.867Z,2.40
2023-02-27T13:32:49.499Z,2.57
2023-02-27T13:35:31.910Z,2.00
2023-02-27T13:38:05.152Z,2.20
2023-02-27T13:40:37.148Z,2.90
2023-02-27T13:43:27.101Z,2.17
2023-02-27T13:46:03.530Z,2.30
2023-02-27T13:48:47.937Z,2.10
2023-02-27T13:51:56.530Z,2.20
2023-02-27T13:54:36.337Z,2.30
2023-02-27T13:57:21.228Z,2.50
2023-02-27T14:00:00.685Z,2.20
2023-02-27T14:02:59.734Z,2.67
2023-02-27T14:05:35.084Z,2.23
2023-02-27T14:08:12.770Z,2.50
2023-02-27T14:10:56.766Z,2.43
2023-02-27T14:14:01.857Z,2.50
2023-02-27T14:16:58.694Z,2.50
2023-02-27T14:19:48.174Z,2.60
2023-02-27T14:22:36.526Z,2.43
2023-02-27T14:25:18.532Z,2.27
2023-02-27T14:27:52.961Z,2.50
2023-02-27T14:30:32.180Z,2.60
2023-02-27T14:33:05.564Z,2.90
2023-02-27T14:35:34.527Z,2.70
2023-02-27T14:38:09.398Z,2.30
2023-02-27T14:40:46.064Z,2.47
2023-02-27T14:43:27.404Z,2.60
2023-02-27T14:45:56.138Z,2.30
2023-02-27T14:48:31.202Z,2.33
2023-02-27T14:50:59.936Z,2.50
2023-02-27T14:53:28.572Z,2.60
2023-02-27T14:56:05.909Z,2.63
2023-02-27T14:58:37.738Z,2.60
2023-02-27T15:01:14.463Z,2.63
2023-02-27T15:03:48.123Z,2.70
2023-02-27T15:06:19.941Z,2.73
2023-02-27T15:08:50.969Z,2.40
2023-02-27T15:11:21.709Z,2.53
2023-02-27T15:13:57.715Z,3.10
2023-02-27T15:16:49.399Z,2.37
2023-02-27T15:19:19.834Z,2.40
2023-02-27T15:21:50.615Z,2.73
2023-02-27T15:24:43.790Z,2.67
2023-02-27T15:27:19.845Z,2.57
2023-02-27T15:29:55.254Z,2.80
2023-02-27T15:32:28.912Z,2.43
2023-02-27T15:34:58.196Z,2.60
2023-02-27T15:37:28.689Z,2.30
2023-02-27T15:39:58.276Z,2.30
2023-02-27T15:42:29.497Z,2.50
2023-02-27T15:44:59.457Z,2.23
2023-02-27T15:47:38.229Z,2.60
2023-02-27T15:50:17.290Z,2.50
2023-02-27T15:52:54.687Z,2.90
2023-02-27T15:55:26.623Z,2.80
2023-02-27T15:58:02.665Z,3.00
2023-02-27T16:00:42.494Z,2.30
2023-02-27T16:03:10.802Z,2.83
2023-02-27T16:05:42.548Z,2.43
2023-02-27T16:08:25.698Z,2.77
2023-02-27T16:11:07.496Z,2.40
2023-02-27T16:13:41.437Z,2.40
2023-02-27T16:16:25.072Z,2.87
2023-02-27T16:19:05.895Z,2.60
2023-02-27T16:21:36.232Z,2.83
2023-02-27T16:24:20.832Z,2.70
2023-02-27T16:26:52.554Z,2.40
2023-02-27T16:29:22.406Z,2.53
2023-02-27T16:31:54.225Z,2.43
2023-02-27T16:34:44.325Z,2.30
2023-02-27T16:37:20.150Z,2.53
2023-02-27T16:39:49.863Z,2.53
2023-02-27T16:42:17.622Z,2.40
2023-02-27T16:44:45.524Z,2.57
2023-02-27T16:47:14.605Z,2.60
2023-02-27T16:49:44.310Z,2.80
2023-02-27T16:52:12.931Z,3.00
2023-02-27T16:54:40.695Z,2.93
2023-02-27T16:57:08.432Z,3.10
2023-02-27T16:59:39.112Z,3.27
2023-02-27T17:02:11.339Z,3.00
2023-02-27T17:04:43.876Z,3.43
2023-02-27T17:07:15.714Z,3.03
2023-02-27T17:09:43.932Z,3.57
2023-02-27T17:12:11.711Z,2.90
2023-02-27T17:14:39.377Z,2.90
2023-02-27T17:17:07.627Z,2.80
2023-02-27T17:19:35.617Z,2.97
2023-02-27T17:22:04.947Z,3.00
2023-02-27T17:24:32.739Z,3.20
2023-02-27T17:27:00.548Z,3.00
2023-02-27T17:29:28.671Z,3.10
2023-02-27T17:31:57.437Z,3.50
2023-02-27T17:34:25.559Z,2.93
2023-02-27T17:36:53.434Z,2.67
2023-02-27T17:39:22.570Z,2.73
2023-02-27T17:41:52.778Z,2.93
2023-02-27T17:44:20.560Z,3.40
2023-02-27T17:46:48.342Z,2.80
2023-02-27T17:49:16.292Z,2.80
2023-02-27T17:51:44.033Z,3.30
2023-02-27T17:54:11.764Z,2.93
2023-02-27T17:56:40.847Z,2.80
2023-02-27T17:59:08.735Z,2.77
2023-02-27T18:01:36.736Z,2.90
2023-02-27T18:04:04.993Z,2.63
2023-02-27T18:06:32.738Z,2.87
2023-02-27T18:09:00.518Z,3.10
2023-02-27T18:11:28.260Z,2.87
2023-02-27T18:13:57.402Z,3.20
2023-02-27T18:16:25.349Z,3.53
2023-02-27T18:18:53.156Z,3.57
2023-02-27T18:21:22.975Z,2.87
2023-02-27T18:23:51.994Z,3.10
2023-02-27T18:26:29.460Z,3.40
2023-02-27T18:29:01.044Z,2.83
2023-02-27T18:31:31.285Z,2.90
2023-02-27T18:33:59.564Z,3.20
2023-02-27T18:36:27.692Z,3.13
2023-02-27T18:38:55.771Z,3.17
2023-02-27T18:41:23.508Z,3.07
2023-02-27T18:43:51.316Z,2.90
2023-02-27T18:46:20.629Z,3.07
2023-02-27T18:48:48.619Z,3.10
2023-02-27T18:51:17.406Z,3.40
2023-02-27T18:53:47.409Z,3.70
2023-02-27T18:56:16.383Z,3.10
2023-02-27T18:58:44.262Z,3.63
2023-02-27T19:01:21.809Z,3.30
2023-02-27T19:03:49.924Z,3.13
2023-02-27T19:06:18.172Z,3.00
2023-02-27T19:08:46.956Z,4.03
2023-02-27T19:11:22.943Z,3.73
2023-02-27T19:13:50.689Z,3.10
2023-02-27T19:16:19.899Z,3.27
2023-02-27T19:18:48.005Z,3.50
2023-02-27T19:21:15.716Z,3.23
2023-02-27T19:23:43.483Z,3.23
2023-02-27T19:26:11.165Z,3.17
2023-02-27T19:28:38.906Z,5.47
2023-02-27T19:31:08.673Z,3.80
2023-02-27T19:33:38.059Z,4.03
2023-02-27T19:36:07.411Z,3.47
2023-02-27T19:38:35.178Z,3.47
2023-02-27T19:41:03.374Z,3.20
2023-02-27T19:43:31.283Z,3.50
2023-02-27T19:45:59.311Z,3.30
2023-02-27T19:48:27.126Z,3.77
2023-02-27T19:50:56.233Z,3.70
2023-02-27T19:53:25.604Z,3.80
2023-02-27T19:55:59.097Z,3.97
2023-02-27T19:58:26.820Z,3.80
2023-02-27T20:00:54.558Z,3.57
2023-02-27T20:03:22.407Z,3.93
2023-02-27T20:05:50.299Z,3.80
2023-02-27T20:08:19.779Z,3.87
2023-02-27T20:10:54.942Z,3.50
2023-02-27T20:13:22.693Z,3.93
2023-02-27T20:15:56.863Z,3.90
2023-02-27T20:18:24.708Z,4.10
2023-02-27T20:21:00.164Z,3.97
2023-02-27T20:23:30.006Z,3.93
2023-02-27T20:25:57.722Z,3.57
2023-02-27T20:28:25.629Z,3.90
2023-02-27T20:30:53.330Z,3.80
2023-02-27T20:33:21.043Z,3.87
2023-02-27T20:35:48.837Z,4.30
2023-02-27T20:38:19.843Z,3.90
2023-02-27T20:40:49.056Z,4.03
2023-02-27T20:43:16.806Z,3.90
2023-02-27T20:45:44.512Z,3.60
2023-02-27T20:48:12.207Z,4.20
2023-02-27T20:50:39.920Z,4.13
2023-02-27T20:53:07.630Z,4.10
2023-02-27T20:55:35.337Z,3.33
2023-02-27T20:58:04.432Z,4.03
2023-02-27T21:00:32.122Z,3.80
2023-02-27T21:03:00.767Z,3.60
2023-02-27T21:05:28.466Z,3.47
2023-02-27T21:07:59.406Z,3.10
2023-02-27T21:10:27.080Z,3.20
2023-02-27T21:12:54.790Z,3.10
2023-02-27T21:15:24.383Z,3.43
2023-02-27T21:17:52.042Z,2.90
2023-02-27T21:20:19.899Z,2.97
2023-02-27T21:22:47.597Z,2.97
2023-02-27T21:25:15.320Z,3.17
2023-02-27T21:27:43.028Z,3.03
2023-02-27T21:30:12.185Z,2.63
2023-02-27T21:32:41.559Z,3.17
2023-02-27T21:35:10.131Z,2.83
2023-02-27T21:37:37.914Z,3.00
2023-02-27T21:40:06.439Z,3.20
2023-02-27T21:42:34.174Z,2.90
2023-02-27T21:45:01.873Z,2.90
2023-02-27T21:47:29.965Z,3.10
2023-02-27T21:49:59.078Z,3.10
2023-02-27T21:52:26.850Z,3.00
2023-02-27T21:54:56.291Z,3.37
2023-02-27T21:57:24.056Z,3.23
2023-02-27T21:59:51.753Z,3.10
2023-02-27T22:02:19.519Z,2.80
2023-02-27T22:04:47.236Z,2.80
2023-02-27T22:07:16.262Z,2.80
2023-02-27T22:09:44.025Z,2.70
2023-02-27T22:12:11.721Z,2.60
2023-02-27T22:14:39.566Z,2.70
2023-02-27T22:17:07.272Z,2.83
2023-02-27T22:19:34.958Z,2.60
2023-02-27T22:22:02.756Z,2.90
2023-02-27T22:24:31.932Z,2.73
2023-02-27T22:26:59.861Z,2.77
2023-02-27T22:29:27.635Z,2.70
2023-02-27T22:31:55.562Z,2.40
2023-02-27T22:34:23.331Z,2.70
2023-02-27T22:36:52.561Z,2.60
2023-02-27T22:39:21.591Z,3.00
2023-02-27T22:41:50.853Z,2.43
2023-02-27T22:44:18.818Z,2.77
2023-02-27T22:46:48.117Z,2.87
2023-02-27T22:49:18.013Z,2.70
2023-02-27T22:51:50.848Z,2.77
2023-02-27T22:54:20.841Z,2.80
2023-02-27T22:56:52.922Z,2.70
2023-02-27T22:59:20.639Z,2.60
2023-02-27T23:01:49.086Z,2.47
2023-02-27T23:04:17.978Z,2.87
2023-02-27T23:06:46.050Z,2.60
2023-02-27T23:09:16.401Z,2.93
2023-02-27T23:11:44.357Z,2.40
2023-02-27T23:14:14.441Z,3.37
2023-02-27T23:16:45.351Z,2.40
2023-02-27T23:19:14.699Z,2.63
2023-02-27T23:21:42.516Z,2.57
2023-02-27T23:24:12.003Z,3.10
2023-02-27T23:26:41.131Z,2.97
2023-02-27T23:29:09.974Z,2.80
2023-02-27T23:31:39.184Z,3.03
2023-02-27T23:34:07.662Z,2.73
2023-02-27T23:36:35.898Z,2.87
2023-02-27T23:39:05.015Z,2.87
2023-02-27T23:41:34.087Z,2.80
2023-02-27T23:44:02.428Z,2.80
2023-02-27T23:46:31.013Z,3.07
2023-02-27T23:49:00.830Z,2.83
2023-02-27T23:51:30.488Z,2.80
2023-02-27T23:53:58.847Z,2.70
2023-02-27T23:56:28.462Z,3.23
2023-02-27T23:58:58.177Z,3.10
